sensor_id;sensor_type;location;lat;lon;timestamp;temperature;humidity
14359;DHT22;7263;49.418;11.064;2023-03-04T00:01:32;-0.70;99.90
14359;DHT22;7263;49.418;11.064;2023-03-04T00:03:59;-0.70;99.90
14359;DHT22;7263;49.418;11.064;2023-03-04T00:06:26;-0.80;99.90
14359;DHT22;7263;49.418;11.064;2023-03-04T00:08:53;-0.90;99.90
14359;DHT22;7263;49.418;11.064;2023-03-04T00:11:22;-0.90;99.90
14359;DHT22;7263;49.418;11.064;2023-03-04T00:13:50;-1.00;99.90
14359;DHT22;7263;49.418;11.064;2023-03-04T00:16:17;-1.10;99.90
14359;DHT22;7263;49.418;11.064;2023-03-04T00:18:43;-1.10;99.90
14359;DHT22;7263;49.418;11.064;2023-03-04T00:21:10;-1.10;99.90
14359;DHT22;7263;49.418;11.064;2023-03-04T00:23:37;-1.10;99.90
14359;DHT22;7263;49.418;11.064;2023-03-04T00:26:05;-1.20;99.90
14359;DHT22;7263;49.418;11.064;2023-03-04T00:28:34;-1.20;99.90
14359;DHT22;7263;49.418;11.064;2023-03-04T00:31:02;-1.20;99.90
14359;DHT22;7263;49.418;11.064;2023-03-04T00:33:28;-1.20;99.90
14359;DHT22;7263;49.418;11.064;2023-03-04T00:35:55;-1.30;99.90
14359;DHT22;7263;49.418;11.064;2023-03-04T00:38:22;-1.30;99.90
14359;DHT22;7263;49.418;11.064;2023-03-04T00:40:58;-1.30;99.90
14359;DHT22;7263;49.418;11.064;2023-03-04T00:43:24;-5.40;99.90
14359;DHT22;7263;49.418;11.064;2023-03-04T00:45:51;-1.40;99.90
14359;DHT22;7263;49.418;11.064;2023-03-04T00:48:19;-1.50;99.90
14359;DHT22;7263;49.418;11.064;2023-03-04T00:50:46;-1.50;99.90
14359;DHT22;7263;49.418;11.064;2023-03-04T00:53:13;-1.50;99.90
14359;DHT22;7263;49.418;11.064;2023-03-04T00:55:40;-1.60;99.90
14359;DHT22;7263;49.418;11.064;2023-03-04T00:58:07;-1.60;99.90
14359;DHT22;7263;49.418;11.064;2023-03-04T01:00:33;-1.60;99.90
14359;DHT22;7263;49.418;11.064;2023-03-04T01:03:00;-1.70;99.90
14359;DHT22;7263;49.418;11.064;2023-03-04T01:05:28;-1.70;99.90
14359;DHT22;7263;49.418;11.064;2023-03-04T01:07:56;-1.70;99.90
14359;DHT22;7263;49.418;11.064;2023-03-04T01:10:23;-1.70;99.90
14359;DHT22;7263;49.418;11.064;2023-03-04T01:12:50;-1.70;99.90
14359;DHT22;7263;49.418;11.064;2023-03-04T01:15:16;-1.80;99.90
14359;DHT22;7263;49.418;11.064;2023-03-04T01:17:43;-1.80;99.90
14359;DHT22;7263;49.418;11.064;2023-03-04T01:20:11;-1.80;99.90
14359;DHT22;7263;49.418;11.064;2023-03-04T01:22:39;-1.80;99.90
14359;DHT22;7263;49.418;11.064;2023-03-04T01:25:07;-1.80;99.90
14359;DHT22;7263;49.418;11.064;2023-03-04T01:27:34;-1.80;99.90
14359;DHT22;7263;49.418;11.064;2023-03-04T01:30:00;-1.80;99.90
14359;DHT22;7263;49.418;11.064;2023-03-04T01:32:27;-1.90;99.90
14359;DHT22;7263;49.418;11.064;2023-03-04T01:34:54;-1.90;99.90
14359;DHT22;7263;49.418;11.064;2023-03-04T01:37:21;-1.90;99.90
14359;DHT22;7263;49.418;11.064;2023-03-04T01:39:49;-1.90;99.90
14359;DHT22;7263;49.418;11.064;2023-03-04T01:42:18;-2.00;99.90
14359;DHT22;7263;49.418;11.064;2023-03-04T01:44:46;-5.80;99.90
14359;DHT22;7263;49.418;11.064;2023-03-04T01:47:14;-2.00;99.90
14359;DHT22;7263;49.418;11.064;2023-03-04T01:49:41;-2.00;99.90
14359;DHT22;7263;49.418;11.064;2023-03-04T01:52:11;-2.10;99.90
14359;DHT22;7263;49.418;11.064;2023-03-04T01:54:38;-2.10;99.90
14359;DHT22;7263;49.418;11.064;2023-03-04T01:57:14;-2.20;99.90
14359;DHT22;7263;49.418;11.064;2023-03-04T01:59:42;-2.20;99.90
14359;DHT22;7263;49.418;11.064;2023-03-04T02:02:08;-2.20;99.90
14359;DHT22;7263;49.418;11.064;2023-03-04T02:04:35;-2.20;99.90
14359;DHT22;7263;49.418;11.064;2023-03-04T02:07:03;-2.20;99.90
14359;DHT22;7263;49.418;11.064;2023-03-04T02:09:31;-2.30;99.90
14359;DHT22;7263;49.418;11.064;2023-03-04T02:11:59;-2.30;99.90
14359;DHT22;7263;49.418;11.064;2023-03-04T02:14:27;-2.30;99.90
14359;DHT22;7263;49.418;11.064;2023-03-04T02:16:54;-2.30;99.90
14359;DHT22;7263;49.418;11.064;2023-03-04T02:19:31;-2.40;99.90
14359;DHT22;7263;49.418;11.064;2023-03-04T02:22:01;-2.40;99.90
14359;DHT22;7263;49.418;11.064;2023-03-04T02:24:32;-2.40;99.90
14359;DHT22;7263;49.418;11.064;2023-03-04T02:29:29;-2.40;99.90
14359;DHT22;7263;49.418;11.064;2023-03-04T02:31:56;-2.30;99.90
14359;DHT22;7263;49.418;11.064;2023-03-04T02:34:27;-2.30;99.90
14359;DHT22;7263;49.418;11.064;2023-03-04T02:36:55;-2.30;99.90
14359;DHT22;7263;49.418;11.064;2023-03-04T02:39:27;-2.30;99.90
14359;DHT22;7263;49.418;11.064;2023-03-04T02:41:54;-2.30;99.90
14359;DHT22;7263;49.418;11.064;2023-03-04T02:44:24;-2.30;99.90
14359;DHT22;7263;49.418;11.064;2023-03-04T02:46:52;-2.20;99.90
14359;DHT22;7263;49.418;11.064;2023-03-04T02:49:19;-2.20;99.90
14359;DHT22;7263;49.418;11.064;2023-03-04T02:56:45;-2.20;99.90
14359;DHT22;7263;49.418;11.064;2023-03-04T03:01:41;-2.20;99.90
14359;DHT22;7263;49.418;11.064;2023-03-04T03:06:35;-2.10;99.90
14359;DHT22;7263;49.418;11.064;2023-03-04T03:09:02;-2.00;99.90
14359;DHT22;7263;49.418;11.064;2023-03-04T03:11:29;-2.10;99.90
14359;DHT22;7263;49.418;11.064;2023-03-04T03:16:24;-2.10;99.90
14359;DHT22;7263;49.418;11.064;2023-03-04T03:21:19;-2.20;99.90
14359;DHT22;7263;49.418;11.064;2023-03-04T03:26:13;-2.30;99.90
14359;DHT22;7263;49.418;11.064;2023-03-04T03:28:40;-2.30;99.90
14359;DHT22;7263;49.418;11.064;2023-03-04T03:31:07;-2.30;99.90
14359;DHT22;7263;49.418;11.064;2023-03-04T03:33:34;-2.30;99.90
14359;DHT22;7263;49.418;11.064;2023-03-04T03:36:03;-2.30;99.90
14359;DHT22;7263;49.418;11.064;2023-03-04T03:38:30;-2.40;99.90
14359;DHT22;7263;49.418;11.064;2023-03-04T03:40:57;-2.40;99.90
14359;DHT22;7263;49.418;11.064;2023-03-04T03:45:51;-2.40;99.90
14359;DHT22;7263;49.418;11.064;2023-03-04T03:48:18;-2.40;99.90
14359;DHT22;7263;49.418;11.064;2023-03-04T03:50:45;-2.40;99.90
14359;DHT22;7263;49.418;11.064;2023-03-04T03:53:13;-2.50;99.90
14359;DHT22;7263;49.418;11.064;2023-03-04T03:55:40;-2.20;99.90
14359;DHT22;7263;49.418;11.064;2023-03-04T03:58:07;-2.40;99.90
14359;DHT22;7263;49.418;11.064;2023-03-04T04:00:34;-2.40;99.90
14359;DHT22;7263;49.418;11.064;2023-03-04T04:05:28;-2.40;99.90
14359;DHT22;7263;49.418;11.064;2023-03-04T04:10:23;-2.40;99.90
14359;DHT22;7263;49.418;11.064;2023-03-04T04:12:50;-2.50;99.90
14359;DHT22;7263;49.418;11.064;2023-03-04T04:15:17;-2.50;99.90
14359;DHT22;7263;49.418;11.064;2023-03-04T04:17:44;-2.40;99.90
14359;DHT22;7263;49.418;11.064;2023-03-04T04:20:11;-2.30;99.90
14359;DHT22;7263;49.418;11.064;2023-03-04T04:22:38;-2.40;99.90
14359;DHT22;7263;49.418;11.064;2023-03-04T04:25:06;-2.40;99.90
14359;DHT22;7263;49.418;11.064;2023-03-04T04:27:36;-2.40;99.90
14359;DHT22;7263;49.418;11.064;2023-03-04T04:32:31;-2.30;99.90
14359;DHT22;7263;49.418;11.064;2023-03-04T04:34:58;-2.30;99.90
14359;DHT22;7263;49.418;11.064;2023-03-04T04:37:25;-2.30;99.90
14359;DHT22;7263;49.418;11.064;2023-03-04T04:39:51;-2.30;99.90
14359;DHT22;7263;49.418;11.064;2023-03-04T04:44:48;-2.20;99.90
14359;DHT22;7263;49.418;11.064;2023-03-04T04:47:16;-2.20;99.90
14359;DHT22;7263;49.418;11.064;2023-03-04T04:49:43;-2.00;99.90
14359;DHT22;7263;49.418;11.064;2023-03-04T04:52:10;-2.10;99.90
14359;DHT22;7263;49.418;11.064;2023-03-04T04:54:36;-2.00;99.90
14359;DHT22;7263;49.418;11.064;2023-03-04T04:57:03;-2.00;99.90
14359;DHT22;7263;49.418;11.064;2023-03-04T04:59:30;-2.00;99.90
14359;DHT22;7263;49.418;11.064;2023-03-04T05:01:58;-2.00;99.90
14359;DHT22;7263;49.418;11.064;2023-03-04T05:04:25;-2.00;99.90
14359;DHT22;7263;49.418;11.064;2023-03-04T05:06:52;-1.90;99.90
14359;DHT22;7263;49.418;11.064;2023-03-04T05:09:18;-1.90;99.90
14359;DHT22;7263;49.418;11.064;2023-03-04T05:11:47;-1.80;99.90
14359;DHT22;7263;49.418;11.064;2023-03-04T05:14:14;-1.80;99.90
14359;DHT22;7263;49.418;11.064;2023-03-04T05:16:40;-1.80;99.90
14359;DHT22;7263;49.418;11.064;2023-03-04T05:19:09;-1.80;99.90
14359;DHT22;7263;49.418;11.064;2023-03-04T05:21:35;-1.80;99.90
14359;DHT22;7263;49.418;11.064;2023-03-04T05:24:02;-1.90;99.90
14359;DHT22;7263;49.418;11.064;2023-03-04T05:26:29;-1.90;99.90
14359;DHT22;7263;49.418;11.064;2023-03-04T05:28:56;-1.80;99.90
14359;DHT22;7263;49.418;11.064;2023-03-04T05:31:23;-1.80;99.90
14359;DHT22;7263;49.418;11.064;2023-03-04T05:33:50;-1.80;99.90
14359;DHT22;7263;49.418;11.064;2023-03-04T05:36:18;-1.80;99.90
14359;DHT22;7263;49.418;11.064;2023-03-04T05:38:44;-1.80;99.90
14359;DHT22;7263;49.418;11.064;2023-03-04T05:41:11;-1.80;99.90
14359;DHT22;7263;49.418;11.064;2023-03-04T05:43:38;-1.70;99.90
14359;DHT22;7263;49.418;11.064;2023-03-04T05:46:08;-1.70;99.90
14359;DHT22;7263;49.418;11.064;2023-03-04T05:48:37;-1.70;99.90
14359;DHT22;7263;49.418;11.064;2023-03-04T05:51:04;-1.70;99.90
14359;DHT22;7263;49.418;11.064;2023-03-04T05:53:32;-1.60;99.90
14359;DHT22;7263;49.418;11.064;2023-03-04T05:56:06;-1.60;99.90
14359;DHT22;7263;49.418;11.064;2023-03-04T05:58:33;-1.50;99.90
14359;DHT22;7263;49.418;11.064;2023-03-04T06:01:00;-1.50;99.90
14359;DHT22;7263;49.418;11.064;2023-03-04T06:03:26;-1.60;99.90
14359;DHT22;7263;49.418;11.064;2023-03-04T06:05:53;-1.50;99.90
14359;DHT22;7263;49.418;11.064;2023-03-04T06:08:20;-1.50;99.90
14359;DHT22;7263;49.418;11.064;2023-03-04T06:10:51;-1.60;99.90
14359;DHT22;7263;49.418;11.064;2023-03-04T06:13:18;-1.60;99.90
14359;DHT22;7263;49.418;11.064;2023-03-04T06:15:47;-1.60;99.90
14359;DHT22;7263;49.418;11.064;2023-03-04T06:18:18;-1.60;99.90
14359;DHT22;7263;49.418;11.064;2023-03-04T06:20:45;-1.50;99.90
14359;DHT22;7263;49.418;11.064;2023-03-04T06:23:12;-1.50;99.90
14359;DHT22;7263;49.418;11.064;2023-03-04T06:25:39;-1.50;99.90
14359;DHT22;7263;49.418;11.064;2023-03-04T06:28:07;-1.50;99.90
14359;DHT22;7263;49.418;11.064;2023-03-04T06:30:33;-1.50;99.90
14359;DHT22;7263;49.418;11.064;2023-03-04T06:33:00;-1.50;99.90
14359;DHT22;7263;49.418;11.064;2023-03-04T06:35:27;-1.40;99.90
14359;DHT22;7263;49.418;11.064;2023-03-04T06:37:54;-1.40;99.90
14359;DHT22;7263;49.418;11.064;2023-03-04T06:40:20;-1.40;99.90
14359;DHT22;7263;49.418;11.064;2023-03-04T06:42:47;-1.40;99.90
14359;DHT22;7263;49.418;11.064;2023-03-04T06:45:15;-1.40;99.90
14359;DHT22;7263;49.418;11.064;2023-03-04T06:47:42;-1.40;99.90
14359;DHT22;7263;49.418;11.064;2023-03-04T06:50:11;-1.30;99.90
14359;DHT22;7263;49.418;11.064;2023-03-04T06:52:38;-1.30;99.90
14359;DHT22;7263;49.418;11.064;2023-03-04T06:55:06;-1.20;99.90
14359;DHT22;7263;49.418;11.064;2023-03-04T06:57:33;-1.20;99.90
14359;DHT22;7263;49.418;11.064;2023-03-04T07:00:00;-1.10;99.90
14359;DHT22;7263;49.418;11.064;2023-03-04T07:02:29;-1.10;99.90
14359;DHT22;7263;49.418;11.064;2023-03-04T07:04:56;-1.00;99.90
14359;DHT22;7263;49.418;11.064;2023-03-04T07:07:23;-0.90;99.90
14359;DHT22;7263;49.418;11.064;2023-03-04T07:09:50;-0.90;99.90
14359;DHT22;7263;49.418;11.064;2023-03-04T07:12:17;-0.80;99.90
14359;DHT22;7263;49.418;11.064;2023-03-04T07:14:44;-0.80;99.90
14359;DHT22;7263;49.418;11.064;2023-03-04T07:17:11;-0.70;99.90
14359;DHT22;7263;49.418;11.064;2023-03-04T07:19:39;-0.60;99.90
14359;DHT22;7263;49.418;11.064;2023-03-04T07:22:06;-0.60;99.90
14359;DHT22;7263;49.418;11.064;2023-03-04T07:24:33;-0.50;99.90
14359;DHT22;7263;49.418;11.064;2023-03-04T07:26:59;-0.50;99.90
14359;DHT22;7263;49.418;11.064;2023-03-04T07:29:27;-0.40;99.90
14359;DHT22;7263;49.418;11.064;2023-03-04T07:31:54;-0.40;99.90
14359;DHT22;7263;49.418;11.064;2023-03-04T07:34:21;-0.40;99.90
14359;DHT22;7263;49.418;11.064;2023-03-04T07:36:49;-0.30;99.90
14359;DHT22;7263;49.418;11.064;2023-03-04T07:39:16;-0.30;99.90
14359;DHT22;7263;49.418;11.064;2023-03-04T07:41:43;-0.30;99.90
14359;DHT22;7263;49.418;11.064;2023-03-04T07:44:11;-0.20;99.90
14359;DHT22;7263;49.418;11.064;2023-03-04T07:46:38;-0.10;99.90
14359;DHT22;7263;49.418;11.064;2023-03-04T07:49:06;0.00;99.90
14359;DHT22;7263;49.418;11.064;2023-03-04T07:51:33;0.00;99.90
14359;DHT22;7263;49.418;11.064;2023-03-04T07:54:01;0.10;99.90
14359;DHT22;7263;49.418;11.064;2023-03-04T07:56:31;0.20;99.90
14359;DHT22;7263;49.418;11.064;2023-03-04T07:58:58;0.30;99.90
14359;DHT22;7263;49.418;11.064;2023-03-04T08:01:26;0.40;99.90
14359;DHT22;7263;49.418;11.064;2023-03-04T08:03:54;0.40;99.90
14359;DHT22;7263;49.418;11.064;2023-03-04T08:06:21;0.40;99.90
14359;DHT22;7263;49.418;11.064;2023-03-04T08:08:48;0.50;99.90
14359;DHT22;7263;49.418;11.064;2023-03-04T08:11:19;0.50;99.90
14359;DHT22;7263;49.418;11.064;2023-03-04T08:13:47;0.50;99.90
14359;DHT22;7263;49.418;11.064;2023-03-04T08:19:34;0.60;99.90
14359;DHT22;7263;49.418;11.064;2023-03-04T08:22:01;0.70;99.90
14359;DHT22;7263;49.418;11.064;2023-03-04T08:24:28;0.80;99.90
14359;DHT22;7263;49.418;11.064;2023-03-04T08:26:56;0.80;99.90
14359;DHT22;7263;49.418;11.064;2023-03-04T08:29:24;0.80;99.90
14359;DHT22;7263;49.418;11.064;2023-03-04T08:31:52;0.80;99.90
14359;DHT22;7263;49.418;11.064;2023-03-04T08:34:21;0.80;99.90
14359;DHT22;7263;49.418;11.064;2023-03-04T08:36:48;0.90;99.90
14359;DHT22;7263;49.418;11.064;2023-03-04T08:39:17;0.80;99.90
14359;DHT22;7263;49.418;11.064;2023-03-04T08:41:44;0.80;99.90
14359;DHT22;7263;49.418;11.064;2023-03-04T08:44:13;0.90;99.90
14359;DHT22;7263;49.418;11.064;2023-03-04T08:46:41;1.00;99.90
14359;DHT22;7263;49.418;11.064;2023-03-04T08:49:10;1.20;99.90
14359;DHT22;7263;49.418;11.064;2023-03-04T08:51:37;1.00;99.90
14359;DHT22;7263;49.418;11.064;2023-03-04T08:54:04;1.10;99.90
14359;DHT22;7263;49.418;11.064;2023-03-04T08:56:31;1.10;99.90
14359;DHT22;7263;49.418;11.064;2023-03-04T08:58:58;1.10;99.90
14359;DHT22;7263;49.418;11.064;2023-03-04T09:01:26;1.30;99.90
14359;DHT22;7263;49.418;11.064;2023-03-04T09:03:53;1.30;99.90
14359;DHT22;7263;49.418;11.064;2023-03-04T09:06:20;1.30;99.90
14359;DHT22;7263;49.418;11.064;2023-03-04T09:08:47;1.40;99.90
14359;DHT22;7263;49.418;11.064;2023-03-04T09:11:14;1.40;99.90
14359;DHT22;7263;49.418;11.064;2023-03-04T09:13:40;1.40;99.90
14359;DHT22;7263;49.418;11.064;2023-03-04T09:16:09;1.50;99.90
14359;DHT22;7263;49.418;11.064;2023-03-04T09:18:38;1.60;99.90
14359;DHT22;7263;49.418;11.064;2023-03-04T09:21:05;1.60;99.90
14359;DHT22;7263;49.418;11.064;2023-03-04T09:23:32;1.60;99.90
14359;DHT22;7263;49.418;11.064;2023-03-04T09:25:59;1.70;99.90
14359;DHT22;7263;49.418;11.064;2023-03-04T09:28:26;1.70;99.90
14359;DHT22;7263;49.418;11.064;2023-03-04T09:30:53;1.80;99.90
14359;DHT22;7263;49.418;11.064;2023-03-04T09:33:19;1.80;99.90
14359;DHT22;7263;49.418;11.064;2023-03-04T09:35:48;1.90;99.90
14359;DHT22;7263;49.418;11.064;2023-03-04T09:38:14;1.80;99.90
14359;DHT22;7263;49.418;11.064;2023-03-04T09:40:43;2.00;99.90
14359;DHT22;7263;49.418;11.064;2023-03-04T09:43:17;2.20;99.90
14359;DHT22;7263;49.418;11.064;2023-03-04T09:45:48;2.20;99.90
14359;DHT22;7263;49.418;11.064;2023-03-04T09:48:19;2.20;99.90
14359;DHT22;7263;49.418;11.064;2023-03-04T09:51:07;2.30;99.90
14359;DHT22;7263;49.418;11.064;2023-03-04T09:53:41;2.30;99.90
14359;DHT22;7263;49.418;11.064;2023-03-04T09:56:13;2.30;99.90
14359;DHT22;7263;49.418;11.064;2023-03-04T09:58:51;2.30;99.90
14359;DHT22;7263;49.418;11.064;2023-03-04T10:01:26;2.30;99.90
14359;DHT22;7263;49.418;11.064;2023-03-04T10:04:02;2.30;99.90
14359;DHT22;7263;49.418;11.064;2023-03-04T10:06:33;2.30;99.90
14359;DHT22;7263;49.418;11.064;2023-03-04T10:09:05;5.80;99.90
14359;DHT22;7263;49.418;11.064;2023-03-04T10:11:40;2.50;99.90
14359;DHT22;7263;49.418;11.064;2023-03-04T10:14:20;2.60;99.90
14359;DHT22;7263;49.418;11.064;2023-03-04T10:16:54;2.60;99.90
14359;DHT22;7263;49.418;11.064;2023-03-04T10:19:32;2.50;99.90
14359;DHT22;7263;49.418;11.064;2023-03-04T10:22:15;2.60;99.90
14359;DHT22;7263;49.418;11.064;2023-03-04T10:24:42;2.70;99.90
14359;DHT22;7263;49.418;11.064;2023-03-04T10:27:13;2.70;99.90
14359;DHT22;7263;49.418;11.064;2023-03-04T10:29:41;2.80;99.90
14359;DHT22;7263;49.418;11.064;2023-03-04T10:32:11;2.80;99.90
14359;DHT22;7263;49.418;11.064;2023-03-04T10:34:39;3.00;99.90
14359;DHT22;7263;49.418;11.064;2023-03-04T10:37:08;3.10;99.90
14359;DHT22;7263;49.418;11.064;2023-03-04T10:39:38;3.00;99.90
14359;DHT22;7263;49.418;11.064;2023-03-04T10:42:22;3.10;99.90
14359;DHT22;7263;49.418;11.064;2023-03-04T10:44:51;3.10;99.90
14359;DHT22;7263;49.418;11.064;2023-03-04T10:47:18;3.30;99.90
14359;DHT22;7263;49.418;11.064;2023-03-04T10:49:50;3.20;99.90
14359;DHT22;7263;49.418;11.064;2023-03-04T10:52:26;3.20;99.90
14359;DHT22;7263;49.418;11.064;2023-03-04T10:54:54;3.20;99.90
14359;DHT22;7263;49.418;11.064;2023-03-04T10:57:25;3.30;99.90
14359;DHT22;7263;49.418;11.064;2023-03-04T10:59:55;3.40;99.90
14359;DHT22;7263;49.418;11.064;2023-03-04T11:02:24;3.40;99.90
14359;DHT22;7263;49.418;11.064;2023-03-04T11:04:55;3.50;99.90
14359;DHT22;7263;49.418;11.064;2023-03-04T11:07:25;3.50;99.90
14359;DHT22;7263;49.418;11.064;2023-03-04T11:09:53;3.40;99.90
14359;DHT22;7263;49.418;11.064;2023-03-04T11:12:29;3.40;99.90
14359;DHT22;7263;49.418;11.064;2023-03-04T11:14:57;3.50;99.90
14359;DHT22;7263;49.418;11.064;2023-03-04T11:17:25;3.60;99.90
14359;DHT22;7263;49.418;11.064;2023-03-04T11:19:56;3.80;99.90
14359;DHT22;7263;49.418;11.064;2023-03-04T11:22:27;3.70;99.90
14359;DHT22;7263;49.418;11.064;2023-03-04T11:25:00;3.80;99.90
14359;DHT22;7263;49.418;11.064;2023-03-04T11:27:39;3.80;99.90
14359;DHT22;7263;49.418;11.064;2023-03-04T11:30:23;3.70;99.90
14359;DHT22;7263;49.418;11.064;2023-03-04T11:32:54;3.60;99.90
14359;DHT22;7263;49.418;11.064;2023-03-04T11:35:26;3.60;99.90
14359;DHT22;7263;49.418;11.064;2023-03-04T11:37:59;3.60;99.90
14359;DHT22;7263;49.418;11.064;2023-03-04T11:40:32;3.60;99.90
14359;DHT22;7263;49.418;11.064;2023-03-04T11:43:03;3.70;99.90
14359;DHT22;7263;49.418;11.064;2023-03-04T11:45:43;3.80;99.90
14359;DHT22;7263;49.418;11.064;2023-03-04T11:48:17;3.80;99.90
14359;DHT22;7263;49.418;11.064;2023-03-04T11:50:50;3.80;99.90
14359;DHT22;7263;49.418;11.064;2023-03-04T11:53:33;3.90;99.90
14359;DHT22;7263;49.418;11.064;2023-03-04T11:56:19;3.80;99.90
14359;DHT22;7263;49.418;11.064;2023-03-04T12:01:50;3.20;99.90
14359;DHT22;7263;49.418;11.064;2023-03-04T12:04:30;3.80;99.90
14359;DHT22;7263;49.418;11.064;2023-03-04T12:07:11;3.70;99.90
14359;DHT22;7263;49.418;11.064;2023-03-04T12:09:50;3.80;99.90
14359;DHT22;7263;49.418;11.064;2023-03-04T12:12:33;3.60;99.90
14359;DHT22;7263;49.418;11.064;2023-03-04T12:15:13;3.60;99.90
14359;DHT22;7263;49.418;11.064;2023-03-04T12:17:59;3.60;99.90
14359;DHT22;7263;49.418;11.064;2023-03-04T12:23:34;3.60;99.90
14359;DHT22;7263;49.418;11.064;2023-03-04T12:26:21;3.40;99.90
14359;DHT22;7263;49.418;11.064;2023-03-04T12:28:56;3.30;99.90
14359;DHT22;7263;49.418;11.064;2023-03-04T12:31:33;3.30;99.90
14359;DHT22;7263;49.418;11.064;2023-03-04T12:36:33;3.20;99.90
14359;DHT22;7263;49.418;11.064;2023-03-04T12:39:14;3.30;99.90
14359;DHT22;7263;49.418;11.064;2023-03-04T12:41:50;3.30;99.90
14359;DHT22;7263;49.418;11.064;2023-03-04T12:44:20;3.50;99.90
14359;DHT22;7263;49.418;11.064;2023-03-04T12:47:08;3.50;99.90
14359;DHT22;7263;49.418;11.064;2023-03-04T12:49:50;3.50;99.90
14359;DHT22;7263;49.418;11.064;2023-03-04T12:52:27;3.60;99.90
14359;DHT22;7263;49.418;11.064;2023-03-04T12:54:55;3.60;99.90
14359;DHT22;7263;49.418;11.064;2023-03-04T12:57:26;3.60;99.90
14359;DHT22;7263;49.418;11.064;2023-03-04T12:59:59;3.60;99.90
14359;DHT22;7263;49.418;11.064;2023-03-04T13:02:47;3.60;99.90
14359;DHT22;7263;49.418;11.064;2023-03-04T13:05:26;3.50;99.90
14359;DHT22;7263;49.418;11.064;2023-03-04T13:08:00;3.50;99.90
14359;DHT22;7263;49.418;11.064;2023-03-04T13:10:28;3.50;99.90
14359;DHT22;7263;49.418;11.064;2023-03-04T13:12:57;3.60;99.90
14359;DHT22;7263;49.418;11.064;2023-03-04T13:15:33;3.60;99.90
14359;DHT22;7263;49.418;11.064;2023-03-04T13:18:03;3.60;99.90
14359;DHT22;7263;49.418;11.064;2023-03-04T13:21:05;3.60;99.90
14359;DHT22;7263;49.418;11.064;2023-03-04T13:23:33;3.70;99.90
14359;DHT22;7263;49.418;11.064;2023-03-04T13:26:28;3.70;99.90
14359;DHT22;7263;49.418;11.064;2023-03-04T13:29:30;3.80;99.90
14359;DHT22;7263;49.418;11.064;2023-03-04T13:32:00;3.90;99.90
14359;DHT22;7263;49.418;11.064;2023-03-04T13:34:47;3.90;99.90
14359;DHT22;7263;49.418;11.064;2023-03-04T13:37:29;4.00;99.90
14359;DHT22;7263;49.418;11.064;2023-03-04T13:40:31;4.00;99.90
14359;DHT22;7263;49.418;11.064;2023-03-04T13:43:24;4.10;99.90
14359;DHT22;7263;49.418;11.064;2023-03-04T13:45:52;4.30;99.90
14359;DHT22;7263;49.418;11.064;2023-03-04T13:48:31;4.20;99.90
14359;DHT22;7263;49.418;11.064;2023-03-04T13:51:00;4.20;99.90
14359;DHT22;7263;49.418;11.064;2023-03-04T13:53:40;4.20;99.90
14359;DHT22;7263;49.418;11.064;2023-03-04T13:56:26;4.10;99.90
14359;DHT22;7263;49.418;11.064;2023-03-04T13:59:04;4.10;99.90
14359;DHT22;7263;49.418;11.064;2023-03-04T14:01:49;4.10;99.90
14359;DHT22;7263;49.418;11.064;2023-03-04T14:04:19;4.10;99.90
14359;DHT22;7263;49.418;11.064;2023-03-04T14:06:47;4.00;99.90
14359;DHT22;7263;49.418;11.064;2023-03-04T14:09:16;4.00;99.90
14359;DHT22;7263;49.418;11.064;2023-03-04T14:11:46;4.00;99.90
14359;DHT22;7263;49.418;11.064;2023-03-04T14:14:15;3.80;99.90
14359;DHT22;7263;49.418;11.064;2023-03-04T14:16:48;3.80;99.90
14359;DHT22;7263;49.418;11.064;2023-03-04T14:19:21;3.70;99.90
14359;DHT22;7263;49.418;11.064;2023-03-04T14:21:48;3.60;99.90
14359;DHT22;7263;49.418;11.064;2023-03-04T14:24:17;3.60;99.90
14359;DHT22;7263;49.418;11.064;2023-03-04T14:26:44;3.60;99.90
14359;DHT22;7263;49.418;11.064;2023-03-04T14:29:22;3.60;99.90
14359;DHT22;7263;49.418;11.064;2023-03-04T14:31:51;3.60;99.90
14359;DHT22;7263;49.418;11.064;2023-03-04T14:34:23;3.60;99.90
14359;DHT22;7263;49.418;11.064;2023-03-04T14:36:51;3.60;99.90
14359;DHT22;7263;49.418;11.064;2023-03-04T14:39:18;3.60;99.90
14359;DHT22;7263;49.418;11.064;2023-03-04T14:41:46;3.60;99.90
14359;DHT22;7263;49.418;11.064;2023-03-04T14:44:23;3.60;99.90
14359;DHT22;7263;49.418;11.064;2023-03-04T14:46:56;3.60;99.90
14359;DHT22;7263;49.418;11.064;2023-03-04T14:49:23;3.60;99.90
14359;DHT22;7263;49.418;11.064;2023-03-04T14:51:51;3.60;99.90
14359;DHT22;7263;49.418;11.064;2023-03-04T14:54:28;3.60;99.90
14359;DHT22;7263;49.418;11.064;2023-03-04T14:56:56;3.70;99.90
14359;DHT22;7263;49.418;11.064;2023-03-04T14:59:31;3.70;99.90
14359;DHT22;7263;49.418;11.064;2023-03-04T15:02:17;3.70;99.90
14359;DHT22;7263;49.418;11.064;2023-03-04T15:04:44;3.70;99.90
14359;DHT22;7263;49.418;11.064;2023-03-04T15:07:14;3.60;99.90
14359;DHT22;7263;49.418;11.064;2023-03-04T15:09:49;3.60;99.90
14359;DHT22;7263;49.418;11.064;2023-03-04T15:12:23;3.70;99.90
14359;DHT22;7263;49.418;11.064;2023-03-04T15:14:51;3.70;99.90
14359;DHT22;7263;49.418;11.064;2023-03-04T15:17:26;3.60;99.90
14359;DHT22;7263;49.418;11.064;2023-03-04T15:20:01;3.60;99.90
14359;DHT22;7263;49.418;11.064;2023-03-04T15:22:28;3.60;99.90
14359;DHT22;7263;49.418;11.064;2023-03-04T15:24:55;3.60;99.90
14359;DHT22;7263;49.418;11.064;2023-03-04T15:27:23;3.50;99.90
14359;DHT22;7263;49.418;11.064;2023-03-04T15:29:51;3.50;99.90
14359;DHT22;7263;49.418;11.064;2023-03-04T15:32:22;3.50;99.90
14359;DHT22;7263;49.418;11.064;2023-03-04T15:34:49;3.50;99.90
14359;DHT22;7263;49.418;11.064;2023-03-04T15:37:19;3.50;99.90
14359;DHT22;7263;49.418;11.064;2023-03-04T15:39:47;3.40;99.90
14359;DHT22;7263;49.418;11.064;2023-03-04T15:42:14;3.40;99.90
14359;DHT22;7263;49.418;11.064;2023-03-04T15:44:41;3.40;99.90
14359;DHT22;7263;49.418;11.064;2023-03-04T15:47:08;3.30;99.90
14359;DHT22;7263;49.418;11.064;2023-03-04T15:49:39;3.30;99.90
14359;DHT22;7263;49.418;11.064;2023-03-04T15:52:08;3.20;99.90
14359;DHT22;7263;49.418;11.064;2023-03-04T15:54:38;3.20;99.90
14359;DHT22;7263;49.418;11.064;2023-03-04T15:57:11;3.20;99.90
14359;DHT22;7263;49.418;11.064;2023-03-04T15:59:41;3.20;99.90
14359;DHT22;7263;49.418;11.064;2023-03-04T16:02:14;3.20;99.90
14359;DHT22;7263;49.418;11.064;2023-03-04T16:04:42;3.10;99.90
14359;DHT22;7263;49.418;11.064;2023-03-04T16:07:14;3.10;99.90
14359;DHT22;7263;49.418;11.064;2023-03-04T16:09:42;3.00;99.90
14359;DHT22;7263;49.418;11.064;2023-03-04T16:12:10;3.00;99.90
14359;DHT22;7263;49.418;11.064;2023-03-04T16:14:37;3.00;99.90
14359;DHT22;7263;49.418;11.064;2023-03-04T16:17:04;3.00;99.90
14359;DHT22;7263;49.418;11.064;2023-03-04T16:19:32;3.00;99.90
14359;DHT22;7263;49.418;11.064;2023-03-04T16:22:01;3.00;99.90
14359;DHT22;7263;49.418;11.064;2023-03-04T16:24:31;3.00;99.90
14359;DHT22;7263;49.418;11.064;2023-03-04T16:26:58;3.00;99.90
14359;DHT22;7263;49.418;11.064;2023-03-04T16:29:25;3.00;99.90
14359;DHT22;7263;49.418;11.064;2023-03-04T16:31:55;3.00;99.90
14359;DHT22;7263;49.418;11.064;2023-03-04T16:34:21;2.90;99.90
14359;DHT22;7263;49.418;11.064;2023-03-04T16:36:48;2.90;99.90
14359;DHT22;7263;49.418;11.064;2023-03-04T16:39:19;2.90;99.90
14359;DHT22;7263;49.418;11.064;2023-03-04T16:41:47;2.90;99.90